createdAt,value
2023-05-15T04:50:40.405Z,449.82
2023-05-15T04:53:13.377Z,451.59
2023-05-15T04:55:46.480Z,453.24
2023-05-15T04:58:19.502Z,456.04
2023-05-15T05:00:52.480Z,446.04
2023-05-15T05:03:26.924Z,429.06
2023-05-15T05:05:59.937Z,436.31
2023-05-15T05:08:32.908Z,439.16
2023-05-15T05:11:05.934Z,432.73
2023-05-15T05:13:38.928Z,427.52
2023-05-15T05:16:11.977Z,438.22
2023-05-15T05:18:46.385Z,433.02
2023-05-15T05:21:19.441Z,440.27
2023-05-15T05:23:52.418Z,436.27
2023-05-15T05:26:26.030Z,440.98
2023-05-15T05:28:59.011Z,439.76
2023-05-15T05:31:32.168Z,424.95
2023-05-15T05:34:06.832Z,423.44
2023-05-15T05:36:39.804Z,436.14
2023-05-15T05:39:12.753Z,413.62
2023-05-15T05:41:46.228Z,410.31
2023-05-15T05:44:19.334Z,410.06
2023-05-15T05:46:53.606Z,406.24
2023-05-15T05:49:27.979Z,410.44
2023-05-15T05:52:08.075Z,407.94
2023-05-15T05:54:41.029Z,400.71
2023-05-15T05:57:14.532Z,392.33
2023-05-15T05:59:47.661Z,371.18
2023-05-15T06:02:21.117Z,380.13
2023-05-15T06:04:55.537Z,374.84
2023-05-15T06:07:28.634Z,371.27
2023-05-15T06:10:01.676Z,365.99
2023-05-15T06:12:34.729Z,372.46
2023-05-15T06:15:08.848Z,367.34
2023-05-15T06:17:41.924Z,365.24
2023-05-15T06:20:16.637Z,359.83
2023-05-15T06:22:49.622Z,365.90
2023-05-15T06:28:09.418Z,349.21
2023-05-15T06:32:34.805Z,361.47
2023-05-15T06:35:09.307Z,357.39
2023-05-15T06:37:42.420Z,367.19
2023-05-15T06:40:15.657Z,375.34
2023-05-15T06:42:48.809Z,379.50
2023-05-15T06:45:21.942Z,382.04
2023-05-15T06:47:57.950Z,391.74
2023-05-15T06:50:32.392Z,385.59
2023-05-15T06:53:05.484Z,383.19
2023-05-15T06:55:38.642Z,395.39
2023-05-15T06:58:11.756Z,393.33
2023-05-15T07:00:44.948Z,395.98
2023-05-15T07:03:19.437Z,378.29
2023-05-15T07:05:52.613Z,373.24
2023-05-15T07:08:26.014Z,378.56
2023-05-15T07:10:59.148Z,383.20
2023-05-15T07:13:32.290Z,376.02
2023-05-15T07:16:06.072Z,373.57
2023-05-15T07:18:40.669Z,373.98
2023-05-15T07:21:14.105Z,368.06
2023-05-15T07:23:47.179Z,351.25
2023-05-15T07:26:32.544Z,355.74
2023-05-15T07:29:10.930Z,360.39
2023-05-15T07:31:45.600Z,362.31
2023-05-15T07:34:20.245Z,355.36
2023-05-15T07:36:53.415Z,328.55
2023-05-15T07:39:26.701Z,329.77
2023-05-15T07:41:59.906Z,329.22
2023-05-15T07:44:33.060Z,325.46
2023-05-15T07:47:06.617Z,317.78
2023-05-15T07:49:41.197Z,318.00
2023-05-15T07:52:14.514Z,319.90
2023-05-15T07:54:47.701Z,310.50
2023-05-15T07:57:20.956Z,310.22
2023-05-15T07:59:54.098Z,317.77
2023-05-15T08:02:27.394Z,325.57
2023-05-15T08:05:01.991Z,319.15
2023-05-15T08:07:36.466Z,327.35
2023-05-15T08:10:10.794Z,323.00
2023-05-15T08:12:46.582Z,318.85
2023-05-15T08:15:19.712Z,301.95
2023-05-15T08:17:52.991Z,296.37
2023-05-15T08:20:27.590Z,292.91
2023-05-15T08:23:00.765Z,290.98
2023-05-15T08:25:33.887Z,298.54
2023-05-15T08:28:07.130Z,308.39
2023-05-15T08:30:40.415Z,286.49
2023-05-15T08:33:13.638Z,279.05
2023-05-15T08:35:48.227Z,282.95
2023-05-15T08:38:22.561Z,290.19
2023-05-15T08:41:02.219Z,298.50
2023-05-15T08:43:39.181Z,301.16
2023-05-15T08:46:12.913Z,269.97
2023-05-15T08:48:46.815Z,263.90
2023-05-15T08:51:23.399Z,271.05
2023-05-15T08:53:57.103Z,259.94
2023-05-15T08:56:30.333Z,269.12
2023-05-15T08:59:04.841Z,263.07
2023-05-15T09:01:38.902Z,262.85
2023-05-15T09:04:12.414Z,260.90
2023-05-15T09:06:49.023Z,251.42
2023-05-15T09:09:22.622Z,263.53
2023-05-15T09:11:56.711Z,270.61
2023-05-15T09:14:30.062Z,268.20
2023-05-15T09:17:03.659Z,264.19
2023-05-15T09:19:37.564Z,255.70
2023-05-15T09:22:23.398Z,263.21
2023-05-15T09:24:58.172Z,252.61
2023-05-15T09:27:31.546Z,250.19
2023-05-15T09:30:11.072Z,252.65
2023-05-15T09:32:44.413Z,257.62
2023-05-15T09:35:32.722Z,261.24
2023-05-15T09:38:11.451Z,259.21
2023-05-15T09:40:44.669Z,250.96
2023-05-15T09:43:17.910Z,253.75
2023-05-15T09:45:51.099Z,248.23
2023-05-15T09:48:24.653Z,243.11
2023-05-15T09:50:58.253Z,247.12
2023-05-15T09:53:35.172Z,253.74
2023-05-15T09:56:10.579Z,246.93
2023-05-15T09:58:54.547Z,234.36
2023-05-15T10:01:28.141Z,231.98
2023-05-15T10:04:02.439Z,236.13
2023-05-15T10:06:42.671Z,233.55
2023-05-15T10:09:17.584Z,239.89
2023-05-15T10:11:53.092Z,236.81
2023-05-15T10:14:29.151Z,234.93
2023-05-15T10:17:02.850Z,241.35
2023-05-15T10:19:44.042Z,226.94
2023-05-15T10:22:24.884Z,210.45
2023-05-15T10:25:03.839Z,214.25
2023-05-15T10:27:41.612Z,212.23
2023-05-15T10:30:17.654Z,210.45
2023-05-15T10:32:51.058Z,221.69
2023-05-15T10:35:24.818Z,228.43
2023-05-15T10:38:03.943Z,226.53
2023-05-15T10:40:39.481Z,212.10
2023-05-15T10:43:15.144Z,205.91
2023-05-15T10:45:49.247Z,199.61
2023-05-15T10:48:26.468Z,204.13
2023-05-15T10:51:01.408Z,201.22
2023-05-15T10:53:35.754Z,204.31
2023-05-15T10:56:16.668Z,206.20
2023-05-15T10:58:51.918Z,206.29
2023-05-15T11:01:29.733Z,203.58
2023-05-15T11:04:08.676Z,211.72
2023-05-15T11:06:43.899Z,214.36
2023-05-15T11:09:40.270Z,228.17
2023-05-15T11:12:14.883Z,210.93
2023-05-15T11:15:22.072Z,215.30
2023-05-15T11:18:06.585Z,222.14
2023-05-15T11:20:41.774Z,225.18
2023-05-15T11:23:14.970Z,225.43
2023-05-15T11:25:55.094Z,206.23
2023-05-15T11:28:31.498Z,212.96
2023-05-15T11:31:08.347Z,228.10
2023-05-15T11:33:42.269Z,239.50
2023-05-15T11:36:16.201Z,240.35
2023-05-15T11:38:52.014Z,238.58
2023-05-15T11:41:33.047Z,226.58
2023-05-15T11:44:07.708Z,245.60
2023-05-15T11:46:41.602Z,242.62
2023-05-15T11:49:15.609Z,249.98
2023-05-15T11:51:49.945Z,255.00
2023-05-15T11:54:25.922Z,258.13
2023-05-15T11:56:59.641Z,249.43
2023-05-15T11:59:35.186Z,249.30
2023-05-15T12:02:08.345Z,239.40
2023-05-15T12:04:41.616Z,239.91
2023-05-15T12:07:14.862Z,235.61
2023-05-15T12:09:53.242Z,235.95
2023-05-15T12:12:28.570Z,225.37
2023-05-15T12:15:03.493Z,230.38
2023-05-15T12:17:39.169Z,184.44
2023-05-15T12:20:17.476Z,172.35
2023-05-15T12:22:50.643Z,154.06
2023-05-15T12:25:26.633Z,126.59
2023-05-15T12:28:01.552Z,126.30
2023-05-15T12:30:36.974Z,115.88
2023-05-15T12:33:12.018Z,120.63
2023-05-15T12:35:56.220Z,124.94
2023-05-15T12:38:34.235Z,117.15
2023-05-15T12:41:07.578Z,121.00
2023-05-15T12:43:41.345Z,110.65
2023-05-15T12:46:15.944Z,141.90
2023-05-15T12:48:49.773Z,180.45
2023-05-15T12:51:24.108Z,182.46
2023-05-15T12:53:58.924Z,196.11
2023-05-15T12:56:32.082Z,202.78
2023-05-15T12:59:05.751Z,206.88
2023-05-15T13:01:42.175Z,198.91
2023-05-15T13:04:17.637Z,199.35
2023-05-15T13:06:52.653Z,205.29
2023-05-15T13:09:26.715Z,204.77
2023-05-15T13:12:02.517Z,198.59
2023-05-15T13:14:36.525Z,197.12
2023-05-15T13:17:11.044Z,195.66
2023-05-15T13:19:44.164Z,202.97
2023-05-15T13:22:17.343Z,194.75
2023-05-15T13:24:50.549Z,185.57
2023-05-15T13:27:23.654Z,192.87
2023-05-15T13:29:57.028Z,196.99
2023-05-15T13:32:31.616Z,199.80
2023-05-15T13:35:04.945Z,184.82
2023-05-15T13:37:38.972Z,185.68
2023-05-15T13:40:13.466Z,184.99
2023-05-15T13:42:47.040Z,190.54
2023-05-15T13:45:20.770Z,181.49
2023-05-15T13:47:55.927Z,170.20
2023-05-15T13:50:29.131Z,174.22
2023-05-15T13:53:02.318Z,178.03
2023-05-15T13:55:38.046Z,189.43
2023-05-15T13:58:11.747Z,189.41
2023-05-15T14:00:45.445Z,193.13
2023-05-15T14:03:20.089Z,202.79
2023-05-15T14:05:53.900Z,211.76
2023-05-15T14:08:27.076Z,219.93
2023-05-15T14:11:00.382Z,227.50
2023-05-15T14:13:34.979Z,235.54
2023-05-15T14:16:08.833Z,239.74
2023-05-15T14:18:43.322Z,230.12
2023-05-15T14:21:16.583Z,232.31
2023-05-15T14:23:49.751Z,227.47
2023-05-15T14:26:23.171Z,212.96
2023-05-15T14:28:56.399Z,210.58
2023-05-15T14:31:29.727Z,219.10
2023-05-15T14:34:05.549Z,212.25
2023-05-15T14:36:38.721Z,218.07
2023-05-15T14:39:12.021Z,217.45
2023-05-15T14:41:49.474Z,206.82
2023-05-15T14:44:22.679Z,208.37
2023-05-15T14:47:07.881Z,200.08
2023-05-15T14:49:42.388Z,205.08
2023-05-15T14:52:15.701Z,208.70
2023-05-15T14:55:00.653Z,212.55
2023-05-15T14:57:40.916Z,223.77
2023-05-15T15:00:15.721Z,229.02
2023-05-15T15:02:49.023Z,231.88
2023-05-15T15:05:23.895Z,246.31
2023-05-15T15:08:02.481Z,255.37
2023-05-15T15:10:37.822Z,254.48
2023-05-15T15:13:13.039Z,238.44
2023-05-15T15:15:46.293Z,241.25
2023-05-15T15:18:20.831Z,246.71
2023-05-15T15:20:55.400Z,249.94
2023-05-15T15:23:28.735Z,257.65
2023-05-15T15:26:04.064Z,256.49
2023-05-15T15:28:37.331Z,247.85
2023-05-15T15:31:12.325Z,252.95
2023-05-15T15:33:45.483Z,255.71
2023-05-15T15:36:20.001Z,250.97
2023-05-15T15:38:53.589Z,259.66
2023-05-15T15:41:26.702Z,261.95
2023-05-15T15:43:59.825Z,263.23
2023-05-15T15:46:32.977Z,256.33
2023-05-15T15:49:07.534Z,251.80
2023-05-15T15:51:42.198Z,237.05
2023-05-15T15:54:15.380Z,242.50
2023-05-15T15:56:48.467Z,237.75
2023-05-15T15:59:21.602Z,235.94
2023-05-15T16:01:54.862Z,240.71
2023-05-15T16:04:28.071Z,246.72
2023-05-15T16:07:02.727Z,254.32
2023-05-15T16:09:35.876Z,259.44
2023-05-15T16:12:09.489Z,271.03
2023-05-15T16:14:42.676Z,275.83
2023-05-15T16:17:15.919Z,275.34
2023-05-15T16:19:49.063Z,276.40
2023-05-15T16:22:23.635Z,262.78
2023-05-15T16:24:56.832Z,269.88
2023-05-15T16:27:29.989Z,259.53
2023-05-15T16:30:03.284Z,251.00
2023-05-15T16:32:36.590Z,234.94
2023-05-15T16:35:10.400Z,228.67
2023-05-15T16:37:44.935Z,223.69
2023-05-15T16:40:18.244Z,235.04
2023-05-15T16:42:51.314Z,244.88
2023-05-15T16:45:24.540Z,248.14
2023-05-15T16:47:58.152Z,256.77
2023-05-15T16:50:33.251Z,271.88
2023-05-15T16:53:08.566Z,269.60
2023-05-15T16:55:41.837Z,282.38
2023-05-15T16:58:15.013Z,282.79
2023-05-15T17:00:48.211Z,284.44
2023-05-15T17:03:21.453Z,276.22
2023-05-15T17:05:54.831Z,277.54
2023-05-15T17:08:29.488Z,273.57
2023-05-15T17:11:02.686Z,266.81
2023-05-15T17:13:35.826Z,275.34
2023-05-15T17:16:12.064Z,258.16
2023-05-15T17:18:45.532Z,260.19
2023-05-15T17:21:18.760Z,218.06
2023-05-15T17:23:54.307Z,209.42
2023-05-15T17:26:27.492Z,191.31
2023-05-15T17:29:00.629Z,183.07
2023-05-15T17:31:35.444Z,174.78
2023-05-15T17:34:11.652Z,168.31
2023-05-15T17:36:44.813Z,167.32
2023-05-15T17:39:19.404Z,164.08
2023-05-15T17:41:52.602Z,156.69
2023-05-15T17:44:27.985Z,147.44
2023-05-15T17:47:02.162Z,138.81
2023-05-15T17:49:35.307Z,128.89
2023-05-15T17:52:09.904Z,128.01
2023-05-15T17:54:44.567Z,118.06
2023-05-15T17:57:20.261Z,112.31
2023-05-15T17:59:53.420Z,113.46
2023-05-15T18:02:26.661Z,108.21
2023-05-15T18:04:59.812Z,104.57
2023-05-15T18:07:33.058Z,102.46
2023-05-15T18:10:09.532Z,108.60
2023-05-15T18:12:42.796Z,105.44
2023-05-15T18:15:16.206Z,102.01
2023-05-15T18:17:49.952Z,97.81
2023-05-15T18:20:23.380Z,95.37
2023-05-15T18:22:56.652Z,96.62
2023-05-15T18:25:31.546Z,93.56
2023-05-15T18:28:05.293Z,84.26
2023-05-15T18:30:38.534Z,79.53
2023-05-15T18:33:12.040Z,78.11
2023-05-15T18:35:45.384Z,78.85
2023-05-15T18:38:18.612Z,73.91
2023-05-15T18:40:53.445Z,70.63
2023-05-15T18:43:26.783Z,71.82
2023-05-15T18:45:59.876Z,70.96
2023-05-15T18:48:35.547Z,67.70
2023-05-15T18:51:09.119Z,66.92
2023-05-15T18:53:42.291Z,63.38
2023-05-15T18:56:16.752Z,60.27
2023-05-15T18:58:49.937Z,55.16
2023-05-15T19:01:23.202Z,54.92
2023-05-15T19:03:56.447Z,54.84
2023-05-15T19:06:29.609Z,55.83
2023-05-15T19:09:03.313Z,54.02
2023-05-15T19:11:37.843Z,54.81
2023-05-15T19:14:15.364Z,57.21
2023-05-15T19:16:48.551Z,62.05
2023-05-15T19:19:21.802Z,64.21
2023-05-15T19:21:54.997Z,70.17
2023-05-15T19:24:28.327Z,71.68
2023-05-15T19:27:02.869Z,69.65
2023-05-15T19:29:36.081Z,72.76
2023-05-15T19:32:09.396Z,71.53
2023-05-15T19:34:42.658Z,73.43
2023-05-15T19:37:15.941Z,69.63
2023-05-15T19:39:49.075Z,66.91
2023-05-15T19:42:23.516Z,62.56
2023-05-15T19:44:56.674Z,63.42
2023-05-15T19:47:29.812Z,57.29
2023-05-15T19:50:03.152Z,51.65
2023-05-15T19:52:36.310Z,48.80
2023-05-15T19:55:10.483Z,46.47
2023-05-15T19:57:45.633Z,46.51
2023-05-15T20:00:19.266Z,44.91
2023-05-15T20:02:53.854Z,49.79
2023-05-15T20:05:27.077Z,46.21
2023-05-15T20:08:00.221Z,44.75
2023-05-15T20:10:33.428Z,40.62
2023-05-15T20:13:08.016Z,38.19
2023-05-15T20:15:42.452Z,36.09
2023-05-15T20:18:16.412Z,34.75
2023-05-15T20:20:49.797Z,35.78
2023-05-15T20:23:22.902Z,35.91
2023-05-15T20:25:56.198Z,34.87
2023-05-15T20:28:30.770Z,37.63
2023-05-15T20:31:03.936Z,33.98
2023-05-15T20:33:37.154Z,34.83
2023-05-15T20:36:10.673Z,33.64
2023-05-15T20:38:44.874Z,30.24
2023-05-15T20:41:18.027Z,28.46
2023-05-15T20:43:52.514Z,31.23
2023-05-15T20:46:28.172Z,29.73
2023-05-15T20:49:02.843Z,30.91
2023-05-15T20:51:36.314Z,30.10
2023-05-15T20:54:09.505Z,36.77
2023-05-15T20:56:42.652Z,37.45
2023-05-15T20:59:19.364Z,42.54
2023-05-15T21:01:52.592Z,44.47
2023-05-15T21:04:25.778Z,44.39
2023-05-15T21:06:58.927Z,43.13
2023-05-15T21:09:32.060Z,45.68
2023-05-15T21:12:05.696Z,43.02
2023-05-15T21:14:40.201Z,46.33
2023-05-15T21:17:13.561Z,43.79
2023-05-15T21:19:48.358Z,44.41
2023-05-15T21:22:21.484Z,44.64
2023-05-15T21:24:54.617Z,46.71
2023-05-15T21:27:27.897Z,47.99
2023-05-15T21:30:02.439Z,49.62
2023-05-15T21:32:35.622Z,52.72
2023-05-15T21:35:09.818Z,50.75
2023-05-15T21:37:44.349Z,49.98
2023-05-15T21:40:17.561Z,47.75
2023-05-15T21:42:50.782Z,50.33
2023-05-15T21:45:25.250Z,49.86
2023-05-15T21:47:58.599Z,51.87
2023-05-15T21:50:31.739Z,52.33
2023-05-15T21:53:04.881Z,52.44
2023-05-15T21:55:37.966Z,50.70
2023-05-15T21:58:13.418Z,49.94
2023-05-15T22:00:47.976Z,47.03
2023-05-15T22:03:21.474Z,48.58
2023-05-15T22:05:54.723Z,49.83
2023-05-15T22:08:27.959Z,50.99
2023-05-15T22:11:01.211Z,48.87
2023-05-15T22:13:34.399Z,50.47
2023-05-15T22:16:09.532Z,52.02
2023-05-15T22:18:45.322Z,54.19
2023-05-15T22:21:18.496Z,50.67
2023-05-15T22:23:51.727Z,50.32
2023-05-15T22:26:24.882Z,51.01
2023-05-15T22:28:58.098Z,50.98
2023-05-15T22:31:32.732Z,52.14
2023-05-15T22:34:05.833Z,51.26
2023-05-15T22:36:38.954Z,51.23
2023-05-15T22:39:12.852Z,48.80
2023-05-15T22:41:49.335Z,51.19
2023-05-15T22:44:25.674Z,48.57
2023-05-15T22:47:00.189Z,49.48
2023-05-15T22:49:33.654Z,52.47
2023-05-15T22:52:07.130Z,49.88
2023-05-15T22:54:41.027Z,48.70
2023-05-15T22:57:14.158Z,50.57
2023-05-15T22:59:47.628Z,49.69
2023-05-15T23:02:22.159Z,52.10
2023-05-15T23:04:55.437Z,56.23
2023-05-15T23:07:28.585Z,52.46
2023-05-15T23:10:01.813Z,51.86
2023-05-15T23:12:34.967Z,51.96
2023-05-15T23:15:09.505Z,50.43
2023-05-15T23:17:44.061Z,51.42
2023-05-15T23:20:17.475Z,48.80
2023-05-15T23:22:50.642Z,47.89
2023-05-15T23:25:23.804Z,47.75
2023-05-15T23:27:56.974Z,46.82
2023-05-15T23:30:30.204Z,39.46
2023-05-15T23:33:04.793Z,38.73
2023-05-15T23:35:37.928Z,34.98
2023-05-15T23:38:11.080Z,34.09
2023-05-15T23:40:44.207Z,31.82
2023-05-15T23:43:19.790Z,31.13
2023-05-15T23:45:52.877Z,25.96
2023-05-15T23:48:28.060Z,21.91
2023-05-15T23:51:01.200Z,21.79
2023-05-15T23:53:34.384Z,19.56
2023-05-15T23:56:08.373Z,17.47
2023-05-15T23:58:41.522Z,15.92
